Time;durP1;ratioP1;P1;durP2;ratioP2;P2;SDS_P1;SDS_P2;PMS_P1;PMS_P2;Temp;Humidity;BMP_temperature;BMP_pressure;BME280_temperature;BME280_humidity;BME280_pressure;Samples;Min_cycle;Max_cycle;Signal;HPM_P1;HPM_P2
2022/04/27 00:02:02;;;;;;;16.57;15.13;;;11.40;99.90;;;;;;10420559;28;20248;-79
2022/04/27 00:07:07;;;;;;;17.30;15.60;;;11.40;99.90;;;;;;10417142;28;20194;-79
2022/04/27 00:12:10;;;;;;;16.77;15.17;;;11.40;99.90;;;;;;10370677;28;20296;-80
2022/04/27 00:17:12;;;;;;;17.73;15.93;;;11.50;99.90;;;;;;10382775;28;20230;-80
2022/04/27 00:22:16;;;;;;;17.80;16.10;;;11.40;99.90;;;;;;10384814;28;20205;-81
2022/04/27 00:27:18;;;;;;;17.30;15.70;;;11.40;99.90;;;;;;10390779;28;20259;-80
2022/04/27 00:32:20;;;;;;;18.20;16.30;;;11.40;99.90;;;;;;10399778;28;20210;-80
2022/04/27 00:37:24;;;;;;;19.67;17.87;;;11.40;99.90;;;;;;10399703;28;20305;-79
2022/04/27 00:42:26;;;;;;;20.40;18.50;;;11.50;99.90;;;;;;10396117;28;20198;-79
2022/04/27 00:47:30;;;;;;;20.03;18.17;;;11.40;99.90;;;;;;10397253;28;20593;-79
2022/04/27 00:52:35;;;;;;;22.63;20.50;;;11.40;99.90;;;;;;10382650;28;20210;-80
2022/04/27 00:57:40;;;;;;;21.93;19.87;;;11.40;99.90;;;;;;10387467;28;20313;-79
2022/04/27 01:02:42;;;;;;;20.30;18.47;;;11.50;99.90;;;;;;10392360;28;20260;-79
2022/04/27 01:07:46;;;;;;;21.97;19.80;;;11.50;99.90;;;;;;10414969;28;20682;-79
2022/04/27 01:12:49;;;;;;;21.77;19.67;;;11.50;99.90;;;;;;10414253;28;20229;-78
2022/04/27 01:17:51;;;;;;;23.67;21.27;;;11.50;99.90;;;;;;10413832;28;20600;-81
2022/04/27 01:22:55;;;;;;;22.13;19.93;;;11.50;99.90;;;;;;10382999;28;20266;-79
2022/04/27 01:27:57;;;;;;;21.97;19.87;;;11.50;99.90;;;;;;10384528;28;20229;-79
2022/04/27 01:32:59;;;;;;;21.57;19.47;;;11.50;99.90;;;;;;10395887;28;20661;-78
2022/04/27 01:38:03;;;;;;;21.97;19.70;;;11.50;99.90;;;;;;10394286;28;20253;-79
2022/04/27 01:43:05;;;;;;;24.93;22.10;;;11.50;99.90;;;;;;10381824;28;20224;-79
2022/04/27 01:48:08;;;;;;;24.40;22.00;;;11.50;99.90;;;;;;10404147;28;20222;-79
2022/04/27 01:58:33;;;;;;;23.00;20.83;;;11.60;99.90;;;;;;10415878;28;20218;-79
2022/04/27 02:03:37;;;;;;;27.20;24.40;;;11.60;99.90;;;;;;10398416;28;20208;-80
2022/04/27 02:08:41;;;;;;;28.30;25.40;;;11.60;99.90;;;;;;10380106;28;20214;-80
2022/04/27 02:13:43;;;;;;;28.43;25.27;;;11.60;99.90;;;;;;10414953;28;20212;-80
2022/04/27 02:25:09;;;;;;;29.33;26.13;;;11.60;99.90;;;;;;10397093;28;20675;-80
2022/04/27 02:30:13;;;;;;;28.37;24.93;;;11.60;99.90;;;;;;10397263;28;20689;-80
2022/04/27 02:35:16;;;;;;;27.80;24.90;;;11.60;99.90;;;;;;10386420;28;20197;-80
2022/04/27 02:40:20;;;;;;;26.23;23.60;;;11.60;99.90;;;;;;10412653;28;20289;-79
2022/04/27 02:45:22;;;;;;;26.70;24.00;;;11.60;99.90;;;;;;10402803;28;20255;-79
2022/04/27 02:55:46;;;;;;;27.23;24.37;;;11.60;99.90;;;;;;10400672;28;20333;-80
2022/04/27 03:00:50;;;;;;;26.63;23.93;;;11.60;99.90;;;;;;10402145;28;20300;-80
2022/04/27 03:05:53;;;;;;;27.00;24.10;;;11.70;99.90;;;;;;10420207;28;20670;-80
2022/04/27 03:10:56;;;;;;;26.13;23.50;;;11.70;99.90;;;;;;10418959;28;20249;-80
2022/04/27 03:16:10;;;;;;;24.53;22.07;;;11.60;99.90;;;;;;10401962;28;20210;-81
2022/04/27 03:21:13;;;;;;;24.40;22.10;;;11.60;99.90;;;;;;10378559;28;20226;-80
2022/04/27 03:26:17;;;;;;;23.50;21.17;;;11.70;99.90;;;;;;10402073;28;20281;-80
2022/04/27 03:31:19;;;;;;;23.47;21.17;;;11.70;99.90;;;;;;10384690;28;20226;-79
2022/04/27 03:36:23;;;;;;;23.80;21.00;;;11.70;99.90;;;;;;10401274;28;20292;-79
2022/04/27 03:41:28;;;;;;;24.13;21.53;;;11.70;99.90;;;;;;10400309;28;20305;-79
2022/04/27 03:46:31;;;;;;;22.70;20.40;;;11.70;99.90;;;;;;10402327;28;20194;-79
2022/04/27 03:51:34;;;;;;;22.20;19.90;;;11.70;99.90;;;;;;10376868;28;20222;-79
2022/04/27 03:56:37;;;;;;;21.40;19.20;;;11.60;99.90;;;;;;10398202;28;20279;-79
2022/04/27 04:01:40;;;;;;;23.17;20.87;;;11.60;99.90;;;;;;10398513;28;20229;-79
2022/04/27 04:06:42;;;;;;;23.93;21.53;;;11.60;99.90;;;;;;10396848;28;20191;-79
2022/04/27 04:11:46;;;;;;;22.40;20.00;;;11.70;99.90;;;;;;10401325;28;20295;-79
2022/04/27 04:17:18;;;;;;;23.80;21.30;;;11.60;99.90;;;;;;10409576;28;20710;-80
2022/04/27 04:22:32;;;;;;;22.37;19.67;;;11.60;99.90;;;;;;10403321;28;20244;-79
2022/04/27 04:33:11;;;;;;;23.80;21.20;;;11.60;99.90;;;;;;10383906;28;20206;-80
2022/04/27 04:38:21;;;;;;;23.13;20.63;;;11.70;99.90;;;;;;10400282;28;20600;-79
2022/04/27 04:43:33;;;;;;;22.97;20.57;;;11.70;99.90;;;;;;10384920;28;20205;-80
2022/04/27 04:48:35;;;;;;;22.90;20.50;;;11.70;99.90;;;;;;10391281;28;20658;-79
2022/04/27 04:54:03;;;;;;;24.63;21.93;;;11.70;99.90;;;;;;10387909;28;20197;-80
2022/04/27 04:59:26;;;;;;;23.13;20.77;;;11.70;99.90;;;;;;10406576;28;20218;-80
2022/04/27 05:04:41;;;;;;;23.50;21.13;;;11.70;99.90;;;;;;10385197;28;20708;-80
2022/04/27 05:09:53;;;;;;;24.47;21.80;;;11.80;99.90;;;;;;10389721;28;20218;-80
2022/04/27 05:15:29;;;;;;;23.47;21.07;;;11.70;99.90;;;;;;10379665;28;20194;-79
2022/04/27 05:20:47;;;;;;;24.83;22.20;;;11.70;99.90;;;;;;10376332;28;20218;-80
2022/04/27 05:26:08;;;;;;;24.77;22.00;;;11.80;99.90;;;;;;10421885;28;20186;-79
2022/04/27 05:37:00;;;;;;;25.87;23.17;;;11.80;99.90;;;;;;10388197;28;20218;-79
2022/04/27 05:42:26;;;;;;;27.60;24.60;;;11.80;99.90;;;;;;10419858;28;20213;-78
2022/04/27 05:47:50;;;;;;;28.33;25.30;;;11.80;99.90;;;;;;10385763;28;20218;-80
2022/04/27 05:53:10;;;;;;;29.23;25.70;;;11.90;99.90;;;;;;10410768;28;20542;-80
2022/04/27 05:58:20;;;;;;;30.73;27.40;;;11.90;99.90;;;;;;10394096;28;20613;-80
2022/04/27 06:03:47;;;;;;;29.53;26.33;;;12.00;99.90;;;;;;10368782;28;20634;-78
2022/04/27 06:08:49;;;;;;;30.30;25.53;;;12.00;99.90;;;;;;10376834;28;20773;-79
2022/04/27 06:13:57;;;;;;;32.00;26.63;;;12.00;99.90;;;;;;10399941;28;20544;-80
2022/04/27 06:19:10;;;;;;;29.50;26.30;;;12.10;99.90;;;;;;10392016;28;20226;-79
2022/04/27 06:24:13;;;;;;;29.40;25.67;;;12.20;99.90;;;;;;10353898;28;20202;-79
2022/04/27 06:29:15;;;;;;;29.53;24.73;;;12.20;99.90;;;;;;10384372;28;20229;-80
2022/04/27 06:34:23;;;;;;;24.90;22.30;;;12.20;99.90;;;;;;10368529;28;20198;-80
2022/04/27 06:39:27;;;;;;;25.60;22.33;;;12.30;99.90;;;;;;10377762;28;20222;-78
2022/04/27 06:44:29;;;;;;;24.83;22.33;;;12.50;99.90;;;;;;10400255;28;20296;-77
2022/04/27 06:49:51;;;;;;;24.43;22.00;;;12.70;99.90;;;;;;10396021;28;20229;-79
2022/04/27 06:55:28;;;;;;;24.67;22.03;;;12.80;99.90;;;;;;10358574;28;20210;-79
2022/04/27 07:00:43;;;;;;;24.43;22.13;;;13.00;99.90;;;;;;10418942;28;20222;-79
2022/04/27 07:05:47;;;;;;;23.87;21.03;;;13.00;99.90;;;;;;10389586;28;20213;-79
2022/04/27 07:10:49;;;;;;;21.63;19.50;;;13.00;99.90;;;;;;10395766;28;20217;-80
2022/04/27 07:15:51;;;;;;;20.53;18.53;;;13.00;99.90;;;;;;10401109;28;20264;-78
2022/04/27 07:20:58;;;;;;;18.80;17.00;;;13.10;99.90;;;;;;10395886;28;20712;-79
2022/04/27 07:26:00;;;;;;;19.20;17.30;;;13.10;99.90;;;;;;10397878;28;20198;-78
2022/04/27 07:31:02;;;;;;;17.17;15.47;;;13.10;99.90;;;;;;10397519;28;20294;-79
2022/04/27 07:36:07;;;;;;;16.80;15.20;;;13.10;99.90;;;;;;10395107;28;20255;-79
2022/04/27 07:41:10;;;;;;;17.63;15.70;;;13.10;99.90;;;;;;10399422;28;20245;-78
2022/04/27 07:46:12;;;;;;;16.07;14.57;;;13.20;99.90;;;;;;10398230;28;20202;-79
2022/04/27 07:51:15;;;;;;;14.80;13.40;;;13.30;99.90;;;;;;10404747;28;20229;-78
2022/04/27 07:56:17;;;;;;;16.43;14.80;;;13.40;99.90;;;;;;10403479;28;20194;-78
2022/04/27 08:01:20;;;;;;;16.03;14.53;;;13.50;99.90;;;;;;10402940;28;20227;-78
2022/04/27 08:06:23;;;;;;;15.30;13.87;;;13.60;99.90;;;;;;10404625;28;20586;-78
2022/04/27 08:11:25;;;;;;;13.57;12.37;;;13.60;99.90;;;;;;10401227;28;20221;-78
2022/04/27 08:16:28;;;;;;;14.40;13.00;;;14.00;99.90;;;;;;10402776;28;20280;-78
2022/04/27 08:21:31;;;;;;;14.13;12.73;;;14.50;99.90;;;;;;10410534;28;20280;-78
2022/04/27 08:26:33;;;;;;;10.23;9.33;;;14.80;99.90;;;;;;10407974;28;20202;-79
2022/04/27 08:31:35;;;;;;;13.40;12.20;;;14.90;99.90;;;;;;10400647;28;20225;-79
2022/04/27 08:36:39;;;;;;;12.30;11.07;;;15.00;99.90;;;;;;10417960;28;20206;-78
2022/04/27 08:41:42;;;;;;;12.63;11.30;;;15.00;99.90;;;;;;10400213;28;20222;-78
2022/04/27 08:46:44;;;;;;;13.70;11.70;;;15.10;99.90;;;;;;10395949;28;20240;-79
2022/04/27 08:51:49;;;;;;;13.30;11.90;;;15.20;99.90;;;;;;10405521;28;20221;-78
2022/04/27 08:56:52;;;;;;;12.57;11.27;;;15.50;99.90;;;;;;10398567;28;20214;-79
2022/04/27 09:01:57;;;;;;;14.17;12.80;;;15.80;99.90;;;;;;10403736;28;20728;-79
2022/04/27 09:07:16;;;;;;;12.47;11.37;;;16.20;99.90;;;;;;10418914;28;20662;-79
2022/04/27 09:12:20;;;;;;;11.00;10.00;;;16.50;99.90;;;;;;10419730;28;20229;-78
2022/04/27 09:22:46;;;;;;;9.00;8.20;;;16.90;99.90;;;;;;10389362;28;20228;-79
2022/04/27 09:27:54;;;;;;;9.30;8.50;;;16.80;99.90;;;;;;10373794;28;20246;-79
2022/04/27 09:32:57;;;;;;;10.03;9.13;;;16.60;99.90;;;;;;10404060;28;20290;-78
2022/04/27 09:38:14;;;;;;;8.20;7.50;;;16.40;99.90;;;;;;10414548;28;20236;-78
2022/04/27 09:43:17;;;;;;;8.97;8.17;;;16.00;99.90;;;;;;10411088;28;20645;-79
2022/04/27 09:48:20;;;;;;;9.10;7.50;;;15.90;99.90;;;;;;10399306;28;20224;-78
2022/04/27 09:53:23;;;;;;;7.70;7.10;;;15.80;99.90;;;;;;10380848;28;20213;-78
2022/04/27 09:58:27;;;;;;;5.43;5.03;;;15.80;99.90;;;;;;10401102;28;20226;-78
2022/04/27 10:03:30;;;;;;;5.87;5.37;;;15.90;99.90;;;;;;10387222;28;20208;-78
2022/04/27 10:08:35;;;;;;;5.30;4.90;;;16.00;99.90;;;;;;10393068;28;20268;-78
2022/04/27 10:13:38;;;;;;;5.20;4.70;;;16.20;99.90;;;;;;10388001;28;20241;-78
2022/04/27 10:18:40;;;;;;;6.00;5.60;;;16.60;99.90;;;;;;10406143;28;20244;-78
2022/04/27 10:23:46;;;;;;;5.57;5.10;;;16.90;99.90;;;;;;10397160;28;20197;-78
2022/04/27 10:28:50;;;;;;;5.67;5.13;;;17.10;99.90;;;;;;10414792;28;20225;-79
2022/04/27 10:33:52;;;;;;;4.63;4.33;;;17.10;99.90;;;;;;10404441;28;20384;-78
2022/04/27 10:39:19;;;;;;;4.67;4.37;;;17.10;99.90;;;;;;10413403;28;20704;-78
2022/04/27 10:44:23;;;;;;;5.13;4.80;;;17.00;99.90;;;;;;10379143;28;20224;-78
2022/04/27 10:49:26;;;;;;;5.33;4.93;;;16.90;99.90;;;;;;10395603;28;20224;-79
2022/04/27 10:54:32;;;;;;;5.37;4.97;;;16.80;99.90;;;;;;10390454;28;20633;-79
2022/04/27 10:59:47;;;;;;;4.80;4.50;;;16.90;99.90;;;;;;10380149;28;20233;-79
2022/04/27 11:04:52;;;;;;;5.03;4.73;;;16.80;99.90;;;;;;10387724;28;20206;-78
2022/04/27 11:10:17;;;;;;;4.67;4.27;;;16.80;99.90;;;;;;10391698;28;20218;-79
2022/04/27 11:15:22;;;;;;;4.87;4.57;;;16.60;99.90;;;;;;10382612;28;20218;-79
2022/04/27 11:20:30;;;;;;;5.97;5.57;;;16.50;99.90;;;;;;10377414;28;20265;-78
2022/04/27 11:25:35;;;;;;;6.20;5.80;;;16.50;99.90;;;;;;10385440;28;20233;-79
2022/04/27 11:30:38;;;;;;;5.93;5.43;;;16.60;99.90;;;;;;10427782;23;20225;-82
2022/04/27 11:35:44;;;;;;;6.13;5.63;;;16.40;99.90;;;;;;10387598;28;20213;-82
2022/04/27 11:40:49;;;;;;;6.60;6.10;;;16.10;99.90;;;;;;10394374;28;20253;-82
2022/04/27 11:45:51;;;;;;;6.40;6.00;;;16.20;99.90;;;;;;10412963;28;20205;-82
2022/04/27 11:50:54;;;;;;;7.10;6.57;;;16.20;99.90;;;;;;10397404;28;20303;-82
2022/04/27 11:55:58;;;;;;;6.20;5.70;;;16.20;99.90;;;;;;10395603;28;20236;-82
2022/04/27 12:01:02;;;;;;;5.93;5.53;;;16.10;99.90;;;;;;10395073;28;20261;-82
2022/04/27 12:06:04;;;;;;;6.60;6.10;;;15.90;99.90;;;;;;10401011;28;20771;-83
2022/04/27 12:11:07;;;;;;;6.63;6.13;;;15.90;99.90;;;;;;10398420;28;20290;-83
2022/04/27 12:16:10;;;;;;;6.53;6.07;;;16.00;99.90;;;;;;10390941;28;20207;-83
2022/04/27 12:21:20;;;;;;;6.00;5.60;;;16.20;99.90;;;;;;10417990;28;20221;-80
2022/04/27 12:26:24;;;;;;;6.27;5.87;;;16.50;99.90;;;;;;10384078;28;20210;-81
2022/04/27 12:31:27;;;;;;;6.20;5.80;;;16.70;99.90;;;;;;10399565;28;20317;-82
2022/04/27 12:42:08;;;;;;;5.13;4.80;;;16.80;99.90;;;;;;10397545;28;20655;-82
2022/04/27 12:47:12;;;;;;;5.00;4.60;;;16.90;99.90;;;;;;10409906;28;20632;-81
2022/04/27 12:52:17;;;;;;;5.40;5.10;;;16.90;99.90;;;;;;10410398;28;20243;-81
2022/04/27 12:57:21;;;;;;;5.20;4.90;;;16.90;99.90;;;;;;10401634;28;20226;-82
2022/04/27 13:02:23;;;;;;;5.20;4.90;;;16.70;99.90;;;;;;10407602;28;20585;-82
2022/04/27 13:07:25;;;;;;;5.70;5.30;;;16.40;99.90;;;;;;10409082;28;20285;-83
2022/04/27 13:12:37;;;;;;;6.27;5.77;;;16.20;99.90;;;;;;10402518;28;20295;-82
2022/04/27 13:17:42;;;;;;;6.30;5.90;;;16.00;99.90;;;;;;10399899;28;20209;-83
2022/04/27 13:22:44;;;;;;;6.87;6.33;;;15.80;99.90;;;;;;10423179;28;20285;-83
2022/04/27 13:27:48;;;;;;;7.13;6.63;;;15.70;99.90;;;;;;10409489;28;20229;-83
2022/04/27 13:32:50;;;;;;;7.20;6.50;;;15.70;99.90;;;;;;10403042;28;20252;-83
2022/04/27 13:37:52;;;;;;;6.70;6.20;;;15.60;99.90;;;;;;10414670;28;20218;-83
2022/04/27 13:42:56;;;;;;;5.90;5.50;;;15.70;99.90;;;;;;10421667;28;20190;-81
2022/04/27 13:47:58;;;;;;;6.60;6.10;;;15.90;99.90;;;;;;10427482;28;20218;-84
2022/04/27 13:53:03;;;;;;;6.80;5.87;;;16.20;99.90;;;;;;10401711;28;20646;-83
2022/04/27 13:58:06;;;;;;;7.20;6.70;;;16.30;99.90;;;;;;10386107;28;20223;-83
2022/04/27 14:03:09;;;;;;;6.17;5.70;;;16.20;99.90;;;;;;10427155;28;20301;-82
2022/04/27 14:08:12;;;;;;;7.07;6.60;;;16.20;99.90;;;;;;10423363;28;20240;-81
2022/04/27 14:13:17;;;;;;;7.43;6.77;;;16.30;99.90;;;;;;10396484;28;20198;-82
2022/04/27 14:18:19;;;;;;;6.67;6.27;;;16.50;99.90;;;;;;10415735;28;20230;-81
2022/04/27 14:23:22;;;;;;;7.47;6.87;;;16.60;99.90;;;;;;10401095;28;20202;-82
2022/04/27 14:28:27;;;;;;;6.33;5.77;;;16.60;99.90;;;;;;10397946;28;20225;-82
2022/04/27 14:33:29;;;;;;;7.43;6.93;;;16.60;99.90;;;;;;10427594;28;20225;-81
2022/04/27 14:38:31;;;;;;;7.43;6.93;;;16.50;99.90;;;;;;10437754;28;20673;-82
2022/04/27 14:43:35;;;;;;;8.03;7.33;;;16.40;99.90;;;;;;10422846;28;20209;-82
2022/04/27 14:48:42;;;;;;;7.80;7.10;;;16.20;99.90;;;;;;10412701;28;20221;-82
2022/04/27 14:53:44;;;;;;;7.30;6.40;;;16.00;99.90;;;;;;10414188;28;20194;-82
2022/04/27 14:58:48;;;;;;;6.77;6.27;;;15.90;99.90;;;;;;10434226;28;20221;-81
2022/04/27 15:03:51;;;;;;;6.97;6.43;;;15.70;99.90;;;;;;10423220;28;20251;-81
2022/04/27 15:08:53;;;;;;;6.80;6.40;;;15.70;99.90;;;;;;10431781;28;20218;-81
2022/04/27 15:13:57;;;;;;;6.07;5.57;;;15.70;99.90;;;;;;10423190;28;20189;-81
2022/04/27 15:19:00;;;;;;;6.50;6.00;;;15.80;99.90;;;;;;10428044;28;20217;-82
2022/04/27 15:24:02;;;;;;;6.93;6.33;;;16.00;99.90;;;;;;10404938;28;20194;-82
2022/04/27 15:29:06;;;;;;;7.70;7.17;;;16.20;99.90;;;;;;10423152;28;20251;-81
2022/04/27 15:34:08;;;;;;;6.40;6.00;;;16.20;99.90;;;;;;10419978;28;20201;-81
2022/04/27 15:39:10;;;;;;;6.20;5.80;;;16.20;99.90;;;;;;10405123;28;20222;-82
2022/04/27 15:44:14;;;;;;;5.90;5.50;;;16.10;99.90;;;;;;10417188;28;20198;-82
2022/04/27 15:49:16;;;;;;;5.90;5.50;;;16.00;99.90;;;;;;10416167;28;20224;-81
2022/04/27 15:54:18;;;;;;;7.20;6.70;;;15.90;99.90;;;;;;10417431;28;20613;-82
2022/04/27 15:59:22;;;;;;;6.97;6.30;;;15.80;99.90;;;;;;10428244;28;20218;-82
2022/04/27 16:04:25;;;;;;;7.57;6.97;;;15.70;99.90;;;;;;10416143;28;20217;-82
2022/04/27 16:09:28;;;;;;;7.97;7.37;;;15.70;99.90;;;;;;10427986;28;20237;-81
2022/04/27 16:14:32;;;;;;;7.50;6.90;;;15.60;99.90;;;;;;10412083;28;20281;-81
2022/04/27 16:19:34;;;;;;;6.40;6.00;;;15.60;99.90;;;;;;10415510;28;20210;-81
2022/04/27 16:24:37;;;;;;;6.60;6.10;;;15.50;99.90;;;;;;10423132;28;20251;-78
2022/04/27 16:29:41;;;;;;;6.93;6.43;;;15.50;99.90;;;;;;10435682;28;20308;-82
2022/04/27 16:34:43;;;;;;;7.40;6.90;;;15.40;99.90;;;;;;10426686;28;20221;-80
2022/04/27 16:39:45;;;;;;;7.13;6.63;;;15.50;99.90;;;;;;10397686;28;20656;-81
2022/04/27 16:44:49;;;;;;;7.10;6.60;;;15.40;99.90;;;;;;10411435;28;20206;-80
2022/04/27 16:49:51;;;;;;;6.73;6.23;;;15.40;99.90;;;;;;10412962;28;20221;-81
2022/04/27 16:54:54;;;;;;;7.37;6.87;;;15.50;99.90;;;;;;10372064;28;20581;-81
2022/04/27 17:00:52;;;;;;;6.87;6.37;;;15.40;99.90;;;;;;10409056;28;20229;-81
2022/04/27 17:05:20;;;;;;;6.70;6.30;;;15.50;99.90;;;;;;10394325;28;20198;-80
2022/04/27 17:10:23;;;;;;;7.37;6.67;;;15.50;99.90;;;;;;10410109;28;20616;-80
2022/04/27 17:15:29;;;;;;;7.43;6.83;;;15.50;99.90;;;;;;10395991;28;20194;-81
2022/04/27 17:20:32;;;;;;;7.10;6.60;;;15.40;99.90;;;;;;10393346;28;20316;-81
2022/04/27 17:30:55;;;;;;;6.80;6.30;;;15.40;99.90;;;;;;10402285;28;20220;-81
2022/04/27 17:35:58;;;;;;;7.17;6.67;;;15.40;99.90;;;;;;10387668;28;20639;-81
2022/04/27 17:41:01;;;;;;;7.40;6.80;;;15.40;99.90;;;;;;10396655;28;20589;-82
2022/04/27 17:46:04;;;;;;;6.40;5.90;;;15.30;99.90;;;;;;10377414;28;20202;-82
2022/04/27 17:51:06;;;;;;;7.43;6.93;;;15.30;99.90;;;;;;10410440;28;20293;-79
2022/04/27 17:56:09;;;;;;;6.40;5.90;;;15.20;99.90;;;;;;10416366;28;20202;-81
2022/04/27 18:01:13;;;;;;;6.13;5.73;;;15.10;99.90;;;;;;10392566;28;20249;-81
2022/04/27 18:06:15;;;;;;;5.30;4.90;;;15.00;99.90;;;;;;10417495;28;20435;-81
2022/04/27 18:11:17;;;;;;;6.50;6.00;;;14.90;99.90;;;;;;10423037;28;20222;-81
2022/04/27 18:16:22;;;;;;;6.77;6.37;;;14.90;99.90;;;;;;10417048;28;20289;-81
2022/04/27 18:21:24;;;;;;;6.70;6.30;;;14.80;99.90;;;;;;10415235;28;20249;-79
2022/04/27 18:26:27;;;;;;;6.03;5.67;;;14.70;99.90;;;;;;10414065;28;20206;-81
2022/04/27 18:31:32;;;;;;;6.47;5.87;;;14.60;99.90;;;;;;10418866;28;20236;-81
2022/04/27 18:36:34;;;;;;;6.17;5.60;;;14.50;99.90;;;;;;10417635;28;20671;-81
2022/04/27 18:41:37;;;;;;;6.57;6.07;;;14.40;99.90;;;;;;10380064;28;20228;-81
2022/04/27 18:52:00;;;;;;;9.53;8.63;;;14.20;99.90;;;;;;10381653;28;20233;-81
2022/04/27 18:57:02;;;;;;;7.50;6.90;;;14.10;99.90;;;;;;10384156;28;20551;-81
2022/04/27 19:02:07;;;;;;;8.20;7.50;;;13.90;99.90;;;;;;10415091;28;20222;-79
2022/04/27 19:07:10;;;;;;;7.30;6.70;;;13.80;99.90;;;;;;10424472;28;20224;-81
2022/04/27 19:12:13;;;;;;;6.27;5.77;;;13.70;99.90;;;;;;10399378;28;20295;-81
2022/04/27 19:17:17;;;;;;;7.47;6.97;;;13.60;99.90;;;;;;10415084;28;20269;-80
2022/04/27 19:22:20;;;;;;;7.43;6.83;;;13.50;99.90;;;;;;10404356;28;20233;-81
2022/04/27 19:27:22;;;;;;;8.13;7.53;;;13.40;99.90;;;;;;10420779;28;20221;-80
2022/04/27 19:32:25;;;;;;;7.30;6.70;;;13.40;99.90;;;;;;10422622;28;20221;-80
2022/04/27 19:37:28;;;;;;;7.77;7.17;;;13.30;99.90;;;;;;10414225;28;20190;-81
2022/04/27 19:42:30;;;;;;;8.40;7.80;;;13.30;99.90;;;;;;10416746;28;20276;-81
2022/04/27 19:47:33;;;;;;;8.23;7.63;;;13.20;99.90;;;;;;10429229;28;20212;-80
2022/04/27 19:52:56;;;;;;;8.63;7.83;;;13.20;99.90;;;;;;10432474;28;20197;-81
2022/04/27 19:57:58;;;;;;;7.67;7.07;;;13.20;99.90;;;;;;10429015;28;20228;-80
2022/04/27 20:03:02;;;;;;;8.47;7.83;;;13.10;99.90;;;;;;10425956;28;20619;-79
2022/04/27 20:08:05;;;;;;;7.80;7.13;;;13.00;99.90;;;;;;10424942;28;20217;-81
2022/04/27 20:13:07;;;;;;;7.27;6.67;;;12.90;99.90;;;;;;10418606;28;20260;-81
2022/04/27 20:18:11;;;;;;;7.83;7.13;;;12.90;99.90;;;;;;10421100;28;20296;-81
2022/04/27 20:23:14;;;;;;;7.17;6.67;;;12.80;99.90;;;;;;10400501;28;20225;-81
2022/04/27 20:28:19;;;;;;;6.87;6.27;;;12.70;99.90;;;;;;10416821;28;20225;-79
2022/04/27 20:33:22;;;;;;;7.10;6.50;;;12.70;99.90;;;;;;10394818;28;20252;-80
2022/04/27 20:38:25;;;;;;;7.43;6.93;;;12.60;99.90;;;;;;10392045;28;20226;-79
2022/04/27 20:43:27;;;;;;;8.00;7.40;;;12.50;99.90;;;;;;10400556;28;20244;-82
2022/04/27 20:48:32;;;;;;;7.50;6.90;;;12.40;99.90;;;;;;10413486;28;20218;-81
2022/04/27 20:53:34;;;;;;;8.00;7.40;;;12.40;99.90;;;;;;10397862;28;20212;-81
2022/04/27 20:58:37;;;;;;;8.50;7.87;;;12.30;99.90;;;;;;10421091;28;20221;-82
2022/04/27 21:03:44;;;;;;;7.90;7.33;;;12.30;99.90;;;;;;10392342;28;20198;-81
2022/04/27 21:08:46;;;;;;;7.60;7.10;;;12.20;99.90;;;;;;10404511;28;20285;-80
2022/04/27 21:13:48;;;;;;;8.00;7.40;;;12.20;99.90;;;;;;10411373;28;20209;-81
2022/04/27 21:18:51;;;;;;;8.23;7.63;;;12.10;99.90;;;;;;10418555;28;20227;-81
2022/04/27 21:23:54;;;;;;;8.60;7.90;;;12.10;99.90;;;;;;10413903;28;20240;-81
2022/04/27 21:28:56;;;;;;;9.33;8.53;;;12.00;99.90;;;;;;10413464;28;20238;-81
2022/04/27 21:34:00;;;;;;;7.40;6.90;;;12.00;99.90;;;;;;10418390;28;20186;-81
2022/04/27 21:39:02;;;;;;;8.37;7.77;;;12.00;99.90;;;;;;10423941;28;20225;-82
2022/04/27 21:44:07;;;;;;;8.27;7.67;;;11.90;99.90;;;;;;10404781;28;20195;-81
2022/04/27 21:49:11;;;;;;;8.23;7.57;;;11.90;99.90;;;;;;10424283;28;20210;-80
2022/04/27 21:54:13;;;;;;;8.40;7.80;;;11.80;99.90;;;;;;10427078;28;20224;-80
2022/04/27 21:59:15;;;;;;;8.63;7.83;;;11.80;99.90;;;;;;10437428;28;20573;-80
2022/04/27 22:04:20;;;;;;;7.93;7.43;;;11.70;99.90;;;;;;10432591;28;20202;-80
2022/04/27 22:09:25;;;;;;;8.00;7.37;;;11.60;99.90;;;;;;10420736;28;20221;-81
2022/04/27 22:14:27;;;;;;;7.90;7.30;;;11.50;99.90;;;;;;10431489;28;20221;-81
2022/04/27 22:19:31;;;;;;;8.93;7.60;;;11.40;99.90;;;;;;10412873;28;20221;-79
2022/04/27 22:24:36;;;;;;;9.30;8.50;;;11.40;99.90;;;;;;10421442;28;20194;-79
2022/04/27 22:29:38;;;;;;;7.63;7.03;;;11.30;99.90;;;;;;10371172;28;20222;-81
2022/04/27 22:34:41;;;;;;;8.37;7.77;;;11.30;99.90;;;;;;10402219;28;20212;-80
2022/04/27 22:39:44;;;;;;;9.03;8.33;;;11.20;99.90;;;;;;10414239;28;20243;-80
2022/04/27 22:44:46;;;;;;;8.90;8.07;;;11.10;99.90;;;;;;10391472;28;20212;-80
2022/04/27 22:49:49;;;;;;;9.00;8.20;;;11.10;99.90;;;;;;10403835;28;20221;-80
2022/04/27 22:54:52;;;;;;;9.00;8.30;;;11.10;99.90;;;;;;10424925;28;20201;-81
2022/04/27 22:59:54;;;;;;;9.37;8.63;;;11.00;99.90;;;;;;10434084;28;20218;-80
2022/04/27 23:04:57;;;;;;;9.83;8.97;;;11.00;99.90;;;;;;10417914;28;20245;-80
2022/04/27 23:15:30;;;;;;;9.33;8.50;;;10.90;99.90;;;;;;10330404;28;20197;-82
2022/04/27 23:20:34;;;;;;;8.83;8.17;;;10.90;99.90;;;;;;10426019;28;20982;-81
2022/04/27 23:25:36;;;;;;;9.83;8.93;;;10.90;99.90;;;;;;10418854;28;20694;-80
2022/04/27 23:30:38;;;;;;;8.97;8.30;;;10.80;99.90;;;;;;10420944;28;20237;-81
2022/04/27 23:35:42;;;;;;;9.73;8.93;;;10.80;99.90;;;;;;10385253;28;20207;-80
2022/04/27 23:40:44;;;;;;;9.70;9.00;;;10.80;99.90;;;;;;10400888;28;20225;-79
2022/04/27 23:45:46;;;;;;;9.80;9.00;;;10.70;99.90;;;;;;10418985;28;20198;-80
2022/04/27 23:50:50;;;;;;;9.73;8.93;;;10.70;99.90;;;;;;10387116;28;20218;-82
2022/04/27 23:55:52;;;;;;;8.90;8.30;;;10.60;99.90;;;;;;10401995;28;20205;-80
